Time;durP1;ratioP1;P1;durP2;ratioP2;P2;SDS_P1;SDS_P2;PMS_P1;PMS_P2;Temp;Humidity;BMP_temperature;BMP_pressure;BME280_temperature;BME280_humidity;BME280_pressure;Samples;Min_cycle;Max_cycle;Signal;HPM_P1;HPM_P2
2024/01/24 00:01:05;;;;;;;0.60;0.60;;;;;;;12.04;70.75;101079.28;5005242;28;20442;-66
2024/01/24 00:03:31;;;;;;;0.60;0.60;;;;;;;12.09;70.18;101085.41;5007068;28;20026;-66
2024/01/24 00:05:56;;;;;;;0.60;0.60;;;;;;;12.13;70.89;101073.72;5007440;28;20187;-67
2024/01/24 00:08:21;;;;;;;0.60;0.60;;;;;;;12.12;70.04;101074.66;4989929;28;20033;-67
2024/01/24 00:10:47;;;;;;;0.70;0.70;;;;;;;12.10;71.30;101057.81;5008838;28;20120;-67
2024/01/24 00:13:12;;;;;;;0.70;0.70;;;;;;;12.03;70.94;101040.19;5008786;28;20033;-66
2024/01/24 00:15:38;;;;;;;0.70;0.70;;;;;;;12.09;70.55;101024.06;5008043;28;20480;-67
2024/01/24 00:18:04;;;;;;;0.70;0.70;;;;;;;12.11;70.49;101016.88;5008226;28;20068;-67
2024/01/24 00:20:29;;;;;;;0.60;0.60;;;;;;;12.10;70.66;101017.81;5008103;28;20088;-67
2024/01/24 00:22:54;;;;;;;0.60;0.60;;;;;;;12.03;70.46;101008.19;5007173;28;20032;-67
2024/01/24 00:25:20;;;;;;;0.60;0.60;;;;;;;12.11;69.92;101029.34;5005391;28;20022;-67
2024/01/24 00:27:46;;;;;;;0.52;0.52;;;;;;;12.13;70.78;101041.72;5006876;28;20037;-67
2024/01/24 00:30:11;;;;;;;0.60;0.60;;;;;;;12.15;71.22;101045.25;5006833;28;20034;-67
2024/01/24 00:32:37;;;;;;;0.60;0.60;;;;;;;12.12;70.76;101040.00;5007116;28;20045;-67
2024/01/24 00:35:03;;;;;;;0.60;0.60;;;;;;;12.12;70.53;101033.75;5006074;28;20026;-67
2024/01/24 00:37:29;;;;;;;0.60;0.60;;;;;;;12.12;71.24;101034.66;5005150;28;20076;-66
2024/01/24 00:39:54;;;;;;;0.70;0.70;;;;;;;12.14;71.41;101035.47;5007718;28;20026;-67
2024/01/24 00:42:20;;;;;;;0.70;0.70;;;;;;;12.15;72.52;101037.25;5007885;28;20034;-67
2024/01/24 00:44:47;;;;;;;0.57;0.57;;;;;;;12.07;73.27;101020.53;5007892;28;20025;-67
2024/01/24 00:47:13;;;;;;;0.60;0.60;;;;;;;12.06;72.90;101005.44;5007508;28;20488;-66
2024/01/24 00:49:38;;;;;;;0.60;0.60;;;;;;;12.09;73.69;100999.16;4991104;28;20080;-67
2024/01/24 00:52:04;;;;;;;0.57;0.57;;;;;;;12.17;73.72;100979.41;5007755;28;20096;-67
2024/01/24 00:54:29;;;;;;;0.60;0.60;;;;;;;12.11;74.65;100979.53;5008034;28;20446;-67
2024/01/24 00:56:54;;;;;;;0.60;0.60;;;;;;;12.19;74.01;100980.22;5008099;28;20029;-66
2024/01/24 00:59:20;;;;;;;0.60;0.60;;;;;;;12.23;73.79;100973.91;5007929;28;20038;-67
2024/01/24 01:01:45;;;;;;;0.60;0.60;;;;;;;12.19;74.11;100982.91;5008676;28;20022;-67
2024/01/24 01:04:11;;;;;;;0.57;0.57;;;;;;;12.20;74.10;100984.66;5009481;28;20117;-67
2024/01/24 01:06:36;;;;;;;0.60;0.60;;;;;;;12.26;75.00;100979.19;4990394;28;20109;-67
2024/01/24 01:09:02;;;;;;;0.60;0.60;;;;;;;12.20;75.02;100974.00;4992222;28;20034;-67
2024/01/24 01:11:27;;;;;;;0.60;0.60;;;;;;;12.22;74.65;100974.84;4992131;28;20030;-67
2024/01/24 01:13:53;;;;;;;0.60;0.60;;;;;;;12.22;74.71;100961.50;4989138;28;20054;-67
2024/01/24 01:16:18;;;;;;;0.65;0.65;;;;;;;12.24;74.66;100978.34;4991406;28;20033;-68
2024/01/24 01:18:44;;;;;;;0.60;0.60;;;;;;;12.23;75.58;100968.59;4990931;28;20040;-68
2024/01/24 01:21:09;;;;;;;0.70;0.70;;;;;;;12.24;75.17;100964.13;4991474;28;20045;-66
2024/01/24 01:23:34;;;;;;;0.70;0.70;;;;;;;12.25;75.13;100966.78;4990760;28;20485;-66
2024/01/24 01:26:00;;;;;;;0.60;0.60;;;;;;;12.25;76.12;100977.44;4990614;28;20117;-67
2024/01/24 01:28:25;;;;;;;0.60;0.60;;;;;;;12.20;75.56;100975.78;4988983;28;20049;-67
2024/01/24 01:30:51;;;;;;;0.63;0.63;;;;;;;12.14;76.45;100979.47;4972530;28;20058;-66
2024/01/24 01:33:16;;;;;;;0.60;0.60;;;;;;;12.15;76.24;100985.69;4990619;28;20104;-66
2024/01/24 01:35:41;;;;;;;0.60;0.60;;;;;;;12.15;75.91;100981.22;4990342;28;20028;-67
2024/01/24 01:38:07;;;;;;;0.57;0.57;;;;;;;12.21;76.23;100981.06;4991278;28;20424;-67
2024/01/24 01:40:32;;;;;;;0.60;0.60;;;;;;;12.24;75.74;100997.00;4990224;28;20778;-67
2024/01/24 01:42:58;;;;;;;0.60;0.60;;;;;;;12.21;76.04;100986.41;4990241;28;20061;-67
2024/01/24 01:45:23;;;;;;;0.60;0.60;;;;;;;12.21;76.06;100988.22;4989868;28;20030;-67
2024/01/24 01:47:50;;;;;;;0.60;0.60;;;;;;;12.20;75.65;100974.00;4989796;28;20561;-67
2024/01/24 01:50:17;;;;;;;0.60;0.60;;;;;;;12.24;75.27;100985.47;4989328;28;20503;-66
2024/01/24 01:52:43;;;;;;;0.60;0.60;;;;;;;12.22;74.64;100988.19;4988962;28;20035;-67
2024/01/24 01:55:11;;;;;;;0.60;0.60;;;;;;;12.23;74.70;100987.25;4990248;28;20484;-67
2024/01/24 01:57:41;;;;;;;0.60;0.60;;;;;;;12.26;75.09;100976.50;4989984;28;20389;-67
2024/01/24 02:00:38;;;;;;;0.60;0.60;;;;;;;12.26;75.44;100975.63;5002145;28;20022;-67
2024/01/24 02:03:04;;;;;;;0.60;0.60;;;;;;;12.28;75.40;100980.03;4971689;28;20481;-67
2024/01/24 02:05:29;;;;;;;0.60;0.60;;;;;;;12.19;75.95;100966.91;4973072;28;20037;-67
2024/01/24 02:07:55;;;;;;;0.60;0.60;;;;;;;12.17;77.04;100966.09;4997917;28;20117;-67
2024/01/24 02:10:21;;;;;;;0.60;0.60;;;;;;;12.21;76.91;100958.88;5009536;28;20033;-67
2024/01/24 02:12:46;;;;;;;0.60;0.60;;;;;;;12.22;76.95;100964.19;5009366;28;20026;-67
2024/01/24 02:15:11;;;;;;;0.60;0.60;;;;;;;12.16;77.66;100958.13;5007803;28;20030;-67
2024/01/24 02:17:37;;;;;;;0.60;0.60;;;;;;;12.12;78.37;100959.97;5007501;28;20041;-67
2024/01/24 02:20:05;;;;;;;0.60;0.60;;;;;;;12.12;79.05;100951.97;5008972;28;20022;-67
2024/01/24 02:22:31;;;;;;;0.60;0.60;;;;;;;12.11;79.54;100958.19;5008107;28;20030;-66
2024/01/24 02:24:57;;;;;;;0.60;0.60;;;;;;;12.06;79.55;100941.44;5008352;28;20029;-67
2024/01/24 02:27:22;;;;;;;0.70;0.70;;;;;;;12.07;79.97;100940.53;5008766;28;20033;-67
2024/01/24 02:29:48;;;;;;;0.60;0.60;;;;;;;12.14;79.51;100946.59;5009205;28;20801;-67
2024/01/24 02:32:13;;;;;;;0.60;0.60;;;;;;;12.20;79.93;100949.13;5009570;28;20101;-67
2024/01/24 02:34:39;;;;;;;0.70;0.70;;;;;;;12.14;80.44;100947.47;5009455;28;20104;-67
2024/01/24 02:37:04;;;;;;;0.60;0.60;;;;;;;12.13;80.68;100945.72;5009432;28;20796;-67
2024/01/24 02:39:29;;;;;;;0.60;0.60;;;;;;;12.23;80.04;100951.69;5009874;28;20030;-67
2024/01/24 02:41:55;;;;;;;0.60;0.60;;;;;;;12.31;80.72;100945.25;5008134;28;20014;-67
2024/01/24 02:44:20;;;;;;;0.60;0.60;;;;;;;12.40;81.00;100953.06;5009362;28;20026;-68
2024/01/24 02:46:46;;;;;;;0.50;0.50;;;;;;;12.42;80.21;100948.53;5009844;28;20079;-68
2024/01/24 02:49:11;;;;;;;0.60;0.60;;;;;;;12.47;80.96;100941.28;5010431;28;20022;-67
2024/01/24 02:51:37;;;;;;;0.50;0.50;;;;;;;12.48;80.72;100937.72;5009635;28;20417;-68
2024/01/24 02:54:02;;;;;;;0.60;0.60;;;;;;;12.56;80.99;100950.84;5009576;28;20506;-68
2024/01/24 02:56:28;;;;;;;0.60;0.60;;;;;;;12.58;80.46;100947.25;5008917;28;20038;-68
2024/01/24 02:58:53;;;;;;;0.50;0.50;;;;;;;12.64;80.24;100938.19;4992936;28;20037;-66
2024/01/24 03:01:18;;;;;;;0.50;0.50;;;;;;;12.69;79.95;100926.47;5010035;28;20396;-67
2024/01/24 03:03:44;;;;;;;0.50;0.50;;;;;;;12.79;79.39;100941.34;5009435;28;20032;-68
2024/01/24 03:06:10;;;;;;;0.60;0.60;;;;;;;12.51;79.32;100894.94;5008470;28;20066;-67
2024/01/24 03:08:56;;;;;;;0.60;0.60;;;;;;;12.88;78.31;100958.91;5008847;28;20034;-66
2024/01/24 03:11:23;;;;;;;0.50;0.50;;;;;;;12.93;78.02;100957.00;5008657;28;20108;-67
2024/01/24 03:13:48;;;;;;;0.60;0.60;;;;;;;13.01;77.91;100965.69;5007674;28;20053;-66
2024/01/24 03:16:14;;;;;;;0.60;0.60;;;;;;;12.82;78.20;100937.69;5005549;28;20037;-67
2024/01/24 03:18:39;;;;;;;0.60;0.60;;;;;;;13.04;78.06;100961.16;5008197;28;20033;-67
2024/01/24 03:21:06;;;;;;;0.50;0.50;;;;;;;13.04;77.94;100963.81;5007170;28;20068;-67
2024/01/24 03:23:31;;;;;;;0.60;0.60;;;;;;;13.10;77.87;100958.31;4991895;28;20034;-66
2024/01/24 03:25:57;;;;;;;0.60;0.60;;;;;;;13.11;77.22;100972.53;5000682;28;20022;-67
2024/01/24 03:28:23;;;;;;;0.55;0.55;;;;;;;13.15;77.34;100963.50;5008323;28;20030;-66
2024/01/24 03:30:48;;;;;;;0.60;0.60;;;;;;;13.16;77.71;100968.81;5008480;28;20033;-66
2024/01/24 03:33:14;;;;;;;0.50;0.50;;;;;;;13.16;78.86;100954.59;4988459;28;20573;-67
2024/01/24 03:35:40;;;;;;;0.50;0.50;;;;;;;13.15;78.73;100940.34;5008282;28;20025;-67
2024/01/24 03:38:05;;;;;;;0.50;0.50;;;;;;;13.20;78.64;100935.75;5008996;28;20084;-66
2024/01/24 03:40:32;;;;;;;0.50;0.50;;;;;;;13.31;78.03;100947.94;5007904;28;20056;-67
2024/01/24 03:42:58;;;;;;;0.60;0.60;;;;;;;13.36;78.44;100938.00;5007773;28;20097;-68
2024/01/24 03:45:23;;;;;;;0.60;0.60;;;;;;;13.40;78.64;100948.53;5009196;28;20030;-67
2024/01/24 03:47:49;;;;;;;0.50;0.50;;;;;;;13.36;79.01;100948.69;5010037;28;20113;-67
2024/01/24 03:50:15;;;;;;;0.60;0.60;;;;;;;13.35;80.08;100960.28;5008443;28;20032;-67
2024/01/24 03:52:40;;;;;;;0.50;0.50;;;;;;;13.35;81.03;100970.97;5008964;28;20121;-66
2024/01/24 03:55:06;;;;;;;0.50;0.50;;;;;;;13.29;81.03;100971.16;5009109;28;20026;-67
2024/01/24 03:57:31;;;;;;;0.50;0.50;;;;;;;13.37;81.62;100971.78;5007471;28;20487;-67
2024/01/24 03:59:57;;;;;;;0.50;0.50;;;;;;;13.36;81.60;100962.91;5008544;28;20380;-67
2024/01/24 04:02:22;;;;;;;0.50;0.50;;;;;;;13.38;82.54;100954.88;4992199;28;20030;-68
2024/01/24 04:04:47;;;;;;;0.50;0.50;;;;;;;13.41;82.59;100968.13;5007089;28;20030;-67
2024/01/24 04:07:13;;;;;;;0.55;0.55;;;;;;;13.43;83.15;100952.91;5008153;28;20112;-67
2024/01/24 04:09:39;;;;;;;0.60;0.60;;;;;;;13.45;83.00;100943.94;5007586;28;20084;-67
2024/01/24 04:12:05;;;;;;;0.60;0.60;;;;;;;13.49;83.56;100945.63;5006588;28;20029;-67
2024/01/24 04:14:30;;;;;;;0.60;0.60;;;;;;;13.33;82.96;100930.06;5007035;28;20028;-67
2024/01/24 04:16:55;;;;;;;0.50;0.50;;;;;;;13.54;83.78;100973.03;5006969;28;20498;-67
2024/01/24 04:19:21;;;;;;;0.50;0.50;;;;;;;13.53;83.47;100978.44;5007036;28;20073;-67
2024/01/24 04:21:46;;;;;;;0.50;0.50;;;;;;;13.44;84.33;100976.06;4989380;28;20036;-67
2024/01/24 04:24:12;;;;;;;0.50;0.50;;;;;;;13.39;84.93;100977.97;5006821;28;20766;-67
2024/01/24 04:26:37;;;;;;;0.50;0.50;;;;;;;13.15;85.78;100928.78;5007198;28;20052;-67
2024/01/24 04:29:02;;;;;;;0.60;0.60;;;;;;;13.37;86.16;100978.03;5008457;28;20066;-68
2024/01/24 04:31:28;;;;;;;0.50;0.50;;;;;;;13.39;85.54;100977.97;5007025;28;20044;-68
2024/01/24 04:33:54;;;;;;;0.50;0.50;;;;;;;13.43;85.52;100977.84;5008439;28;20029;-67
2024/01/24 04:36:20;;;;;;;0.50;0.50;;;;;;;13.46;85.56;100975.06;5007937;28;20037;-67
2024/01/24 04:38:45;;;;;;;0.50;0.50;;;;;;;13.51;84.97;100991.00;5009428;28;20030;-67
2024/01/24 04:41:11;;;;;;;0.50;0.50;;;;;;;13.56;84.83;100960.53;5012595;28;20089;-67
2024/01/24 04:43:36;;;;;;;0.60;0.60;;;;;;;13.56;85.32;100973.03;5013073;28;20025;-67
2024/01/24 04:46:02;;;;;;;0.50;0.50;;;;;;;13.53;85.73;100944.59;5010962;28;20545;-66
2024/01/24 04:48:28;;;;;;;0.50;0.50;;;;;;;13.58;85.60;100944.44;4993036;28;20635;-68
2024/01/24 04:50:53;;;;;;;0.50;0.50;;;;;;;13.54;86.31;100953.50;5010430;28;20164;-67
2024/01/24 04:53:19;;;;;;;0.50;0.50;;;;;;;13.52;86.01;100936.59;5011105;28;20034;-67
2024/01/24 04:55:44;;;;;;;0.50;0.50;;;;;;;13.59;86.63;100948.88;5010235;28;20048;-67
2024/01/24 04:58:11;;;;;;;0.60;0.60;;;;;;;13.58;86.78;100931.94;5010575;28;20404;-68
2024/01/24 05:00:36;;;;;;;0.50;0.50;;;;;;;13.49;87.50;100950.06;5008299;28;20104;-67
2024/01/24 05:03:02;;;;;;;0.50;0.50;;;;;;;13.59;87.18;100948.88;4984963;28;20578;-67
2024/01/24 05:05:27;;;;;;;0.60;0.60;;;;;;;13.57;88.37;100950.72;5002122;28;20479;-67
2024/01/24 05:07:52;;;;;;;0.55;0.55;;;;;;;13.59;88.13;100959.56;5010293;28;20476;-66
2024/01/24 05:10:18;;;;;;;0.50;0.50;;;;;;;13.69;88.55;100950.34;5008945;28;20026;-66
2024/01/24 05:12:44;;;;;;;0.50;0.50;;;;;;;13.75;87.43;100944.81;5008850;28;20112;-68
2024/01/24 05:15:11;;;;;;;0.50;0.50;;;;;;;13.30;88.43;100880.25;5009758;28;20554;-68
2024/01/24 05:17:39;;;;;;;0.50;0.50;;;;;;;13.73;88.50;100941.31;5002551;28;20025;-68
2024/01/24 05:20:06;;;;;;;0.52;0.52;;;;;;;13.63;89.04;100942.50;4990417;28;20069;-67
2024/01/24 05:22:32;;;;;;;0.60;0.60;;;;;;;13.59;89.48;100949.72;4999112;28;20018;-67
2024/01/24 05:24:58;;;;;;;0.50;0.50;;;;;;;13.41;89.32;100922.69;5007694;28;20028;-67
2024/01/24 05:27:23;;;;;;;0.50;0.50;;;;;;;13.64;89.47;100946.94;5010053;28;20113;-68
2024/01/24 05:29:49;;;;;;;0.50;0.50;;;;;;;13.62;89.79;100920.25;5009291;28;20117;-68
2024/01/24 05:32:14;;;;;;;0.50;0.50;;;;;;;13.59;90.83;100935.50;5011152;28;20041;-67
2024/01/24 05:34:40;;;;;;;0.50;0.50;;;;;;;13.41;92.14;100894.16;5011111;28;20026;-68
2024/01/24 05:37:05;;;;;;;0.50;0.50;;;;;;;13.62;92.48;100938.09;5011168;28;20052;-68
2024/01/24 05:39:31;;;;;;;0.50;0.50;;;;;;;13.71;92.38;100940.47;5010774;28;20034;-68
2024/01/24 05:41:56;;;;;;;0.60;0.60;;;;;;;13.72;92.59;100947.59;5009241;28;20033;-68
2024/01/24 05:44:22;;;;;;;0.50;0.50;;;;;;;13.64;93.05;100917.53;4998554;28;20018;-68
2024/01/24 05:46:47;;;;;;;0.50;0.50;;;;;;;13.83;93.09;100932.06;5009872;28;20037;-68
2024/01/24 05:49:13;;;;;;;0.50;0.50;;;;;;;13.83;93.66;100927.63;5007454;28;20038;-67
2024/01/24 05:51:38;;;;;;;0.50;0.50;;;;;;;13.86;93.31;100919.50;5010248;28;20026;-68
2024/01/24 05:54:04;;;;;;;0.50;0.50;;;;;;;13.92;94.26;100931.81;5008962;28;20065;-67
2024/01/24 05:56:30;;;;;;;0.50;0.50;;;;;;;13.59;94.90;100858.00;5007569;28;20057;-66
2024/01/24 05:58:56;;;;;;;0.50;0.50;;;;;;;13.81;95.25;100912.53;5010266;28;20068;-69
2024/01/24 06:01:21;;;;;;;0.50;0.50;;;;;;;13.84;95.70;100941.84;5008029;28;20033;-68
2024/01/24 06:03:47;;;;;;;0.50;0.50;;;;;;;13.81;96.82;100939.25;5007796;28;20053;-68
2024/01/24 06:06:13;;;;;;;0.50;0.50;;;;;;;13.84;95.93;100940.03;5006649;28;20049;-66
2024/01/24 06:08:39;;;;;;;0.50;0.50;;;;;;;13.67;95.99;100909.41;5007867;28;20030;-68
2024/01/24 06:11:05;;;;;;;0.50;0.50;;;;;;;13.89;96.34;100947.91;5009317;28;20033;-68
2024/01/24 06:13:30;;;;;;;0.50;0.50;;;;;;;13.74;96.95;100921.69;5008354;28;20025;-67
2024/01/24 06:15:56;;;;;;;0.60;0.60;;;;;;;13.90;97.61;100939.00;5003238;28;20035;-68
2024/01/24 06:18:22;;;;;;;0.50;0.50;;;;;;;13.88;96.91;100914.09;4991290;28;20034;-68
2024/01/24 06:20:48;;;;;;;0.50;0.50;;;;;;;13.91;97.46;100922.88;4994748;28;20041;-67
2024/01/24 06:23:13;;;;;;;0.50;0.50;;;;;;;13.93;97.13;100912.16;5002551;28;20080;-66
2024/01/24 06:25:39;;;;;;;0.50;0.50;;;;;;;14.04;96.12;100904.63;5008025;28;20628;-68
2024/01/24 06:28:05;;;;;;;0.50;0.50;;;;;;;14.11;96.35;100924.91;5012339;28;20539;-68
2024/01/24 06:30:30;;;;;;;0.50;0.50;;;;;;;13.87;96.23;100877.59;5012525;28;20049;-67
2024/01/24 06:32:55;;;;;;;0.55;0.55;;;;;;;14.12;96.11;100924.00;5009780;28;20041;-67
2024/01/24 06:35:21;;;;;;;0.50;0.50;;;;;;;14.15;96.99;100922.09;4994179;28;20085;-68
2024/01/24 06:37:48;;;;;;;0.50;0.50;;;;;;;14.10;98.39;100932.06;5009922;28;20076;-67
2024/01/24 06:40:14;;;;;;;0.50;0.50;;;;;;;13.96;99.20;100896.00;5022759;28;20625;-68
2024/01/24 06:42:40;;;;;;;0.50;0.50;;;;;;;14.11;99.76;100927.59;4988442;28;20523;-66
2024/01/24 06:45:09;;;;;;;0.50;0.50;;;;;;;14.08;100.00;100914.31;5013441;28;20049;-67
2024/01/24 06:47:35;;;;;;;0.40;0.40;;;;;;;13.97;100.00;100913.81;4992879;28;20073;-68
2024/01/24 06:50:00;;;;;;;0.60;0.60;;;;;;;13.93;100.00;100917.50;5008880;28;20029;-66
2024/01/24 06:52:26;;;;;;;0.50;0.50;;;;;;;13.86;100.00;100915.94;5008523;28;20108;-67
2024/01/24 06:54:52;;;;;;;0.50;0.50;;;;;;;13.95;100.00;100931.69;5008906;28;20067;-67
2024/01/24 06:57:17;;;;;;;0.50;0.50;;;;;;;13.99;100.00;100927.97;5010503;28;20443;-67
2024/01/24 06:59:43;;;;;;;0.50;0.50;;;;;;;13.99;100.00;100914.59;5009241;28;20053;-67
2024/01/24 07:02:09;;;;;;;0.50;0.50;;;;;;;14.01;100.00;100929.69;5020272;28;20030;-68
2024/01/24 07:04:34;;;;;;;0.50;0.50;;;;;;;13.99;100.00;100911.94;5022549;28;20531;-67
2024/01/24 07:07:00;;;;;;;0.50;0.50;;;;;;;14.05;100.00;100928.66;5018554;28;20607;-68
2024/01/24 07:09:25;;;;;;;0.50;0.50;;;;;;;14.06;100.00;100921.53;5002755;28;20383;-67
2024/01/24 07:11:51;;;;;;;0.50;0.50;;;;;;;14.06;100.00;100919.72;5011160;28;20053;-68
2024/01/24 07:14:17;;;;;;;0.50;0.50;;;;;;;14.04;100.00;100926.91;5019280;28;20140;-67
2024/01/24 07:16:44;;;;;;;0.50;0.50;;;;;;;14.06;100.00;100921.53;5010726;28;20108;-67
2024/01/24 07:19:09;;;;;;;0.60;0.60;;;;;;;13.92;100.00;100913.06;5008725;28;20030;-67
2024/01/24 07:21:35;;;;;;;0.50;0.50;;;;;;;13.99;100.00;100938.69;4983567;28;20040;-68
2024/01/24 07:24:00;;;;;;;0.50;0.50;;;;;;;13.97;100.00;100927.19;5018509;28;20286;-68
2024/01/24 07:26:25;;;;;;;0.60;0.60;;;;;;;14.00;100.00;100929.75;5010622;28;20037;-68
2024/01/24 07:28:51;;;;;;;0.50;0.50;;;;;;;13.99;100.00;100934.22;5005251;28;20113;-66
2024/01/24 07:31:17;;;;;;;0.50;0.50;;;;;;;14.01;100.00;100926.16;5004133;28;20518;-68
2024/01/24 07:33:43;;;;;;;0.50;0.50;;;;;;;14.02;100.00;100926.09;5006639;28;20120;-67
2024/01/24 07:36:08;;;;;;;0.60;0.60;;;;;;;14.02;100.00;100925.25;5005649;28;20164;-66
2024/01/24 07:38:34;;;;;;;0.50;0.50;;;;;;;14.04;100.00;100920.69;5006988;28;20439;-68
2024/01/24 07:40:59;;;;;;;0.60;0.60;;;;;;;14.03;100.00;100925.19;5006579;28;20057;-68
2024/01/24 07:43:24;;;;;;;0.50;0.50;;;;;;;14.03;100.00;100918.94;5007264;28;20747;-66
2024/01/24 07:45:50;;;;;;;0.50;0.50;;;;;;;14.04;100.00;100934.94;5008654;28;20391;-68
2024/01/24 07:48:16;;;;;;;0.50;0.50;;;;;;;14.04;100.00;100942.09;5007214;28;20483;-67
2024/01/24 07:50:42;;;;;;;0.60;0.60;;;;;;;14.05;100.00;100947.38;4982410;28;20057;-68
2024/01/24 07:53:08;;;;;;;0.60;0.60;;;;;;;14.03;100.00;100959.06;4995245;28;20736;-67
2024/01/24 07:55:34;;;;;;;0.50;0.50;;;;;;;14.02;100.00;100957.34;5007908;28;20025;-68
2024/01/24 07:58:00;;;;;;;0.50;0.50;;;;;;;14.02;100.00;100960.00;5009076;28;20040;-69
2024/01/24 08:00:26;;;;;;;0.50;0.50;;;;;;;14.06;100.00;100956.31;5004632;28;20061;-68
2024/01/24 08:02:51;;;;;;;0.50;0.50;;;;;;;14.08;100.00;100963.38;4988360;28;20022;-68
2024/01/24 08:05:18;;;;;;;0.50;0.50;;;;;;;13.87;100.00;100931.91;4998019;28;20030;-68
2024/01/24 08:07:43;;;;;;;0.50;0.50;;;;;;;14.05;100.00;100965.25;5007752;28;20053;-68
2024/01/24 08:10:11;;;;;;;0.52;0.52;;;;;;;14.06;100.00;100964.31;5006545;28;20051;-68
2024/01/24 08:12:40;;;;;;;0.50;0.50;;;;;;;13.92;100.00;100937.16;5006107;28;20113;-68
2024/01/24 08:15:06;;;;;;;0.50;0.50;;;;;;;13.96;100.00;100968.22;5008221;28;20041;-67
2024/01/24 08:17:34;;;;;;;0.60;0.60;;;;;;;14.00;100.00;100943.13;5007464;28;20160;-68
2024/01/24 08:20:00;;;;;;;0.60;0.60;;;;;;;13.98;100.00;100929.81;5007275;28;20045;-68
2024/01/24 08:22:29;;;;;;;0.60;0.60;;;;;;;13.78;100.00;100902.81;5007355;28;20786;-69
2024/01/24 08:24:55;;;;;;;0.55;0.55;;;;;;;14.05;100.00;100944.72;5006637;28;20026;-62
2024/01/24 08:27:20;;;;;;;0.50;0.50;;;;;;;14.10;100.00;100929.38;5006297;28;20797;-62
2024/01/24 08:29:46;;;;;;;0.60;0.60;;;;;;;14.10;100.00;100932.06;5005593;28;20041;-63
2024/01/24 08:32:11;;;;;;;0.60;0.60;;;;;;;14.11;100.00;100932.94;5004316;28;20536;-63
2024/01/24 08:34:37;;;;;;;0.60;0.60;;;;;;;13.75;100.00;100877.97;5005134;28;20030;-62
2024/01/24 08:37:03;;;;;;;0.50;0.50;;;;;;;13.98;100.00;100932.47;5005202;28;20022;-63
2024/01/24 08:39:28;;;;;;;0.50;0.50;;;;;;;13.99;100.00;100930.66;5005222;28;20032;-63
2024/01/24 08:41:53;;;;;;;0.50;0.50;;;;;;;13.99;100.00;100933.34;4989203;28;20030;-63
2024/01/24 08:44:19;;;;;;;0.50;0.50;;;;;;;13.96;100.00;100934.31;5006768;28;20065;-62
2024/01/24 08:46:44;;;;;;;0.60;0.60;;;;;;;14.05;100.00;100949.22;5007775;28;20026;-63
2024/01/24 08:49:12;;;;;;;0.50;0.50;;;;;;;14.03;100.00;100953.72;5005679;28;20025;-63
2024/01/24 08:51:38;;;;;;;0.50;0.50;;;;;;;14.14;100.00;100946.22;5008315;28;20443;-62
2024/01/24 08:54:04;;;;;;;0.60;0.60;;;;;;;14.18;100.00;100953.25;5008025;28;20029;-62
2024/01/24 08:56:29;;;;;;;0.50;0.50;;;;;;;14.17;100.00;100956.81;5006483;28;20403;-62
2024/01/24 08:58:55;;;;;;;0.50;0.50;;;;;;;14.20;100.00;100964.78;5008659;28;20021;-62
2024/01/24 09:01:20;;;;;;;0.60;0.60;;;;;;;14.22;100.00;100974.50;5000639;28;20451;-63
2024/01/24 09:03:48;;;;;;;0.50;0.50;;;;;;;14.21;100.00;100987.91;5007700;28;20072;-63
2024/01/24 09:06:13;;;;;;;0.50;0.50;;;;;;;14.22;100.00;100984.31;5006918;28;20089;-63
2024/01/24 09:08:39;;;;;;;0.50;0.50;;;;;;;14.23;100.00;100992.28;5007388;28;20050;-63
2024/01/24 09:11:04;;;;;;;0.52;0.52;;;;;;;14.26;100.00;100975.31;5007282;28;20045;-62
2024/01/24 09:13:30;;;;;;;0.50;0.50;;;;;;;14.24;100.00;100977.13;5002106;28;20022;-62
2024/01/24 09:15:55;;;;;;;0.50;0.50;;;;;;;14.04;100.00;100952.78;4992614;28;20576;-63
2024/01/24 09:18:21;;;;;;;0.50;0.50;;;;;;;14.19;100.00;100979.06;5005996;28;20030;-63
2024/01/24 09:20:46;;;;;;;0.60;0.60;;;;;;;14.31;100.00;100981.38;5006170;28;20136;-63
2024/01/24 09:23:13;;;;;;;0.50;0.50;;;;;;;14.28;100.00;100986.84;5005273;28;20116;-63
2024/01/24 09:25:38;;;;;;;0.50;0.50;;;;;;;14.30;100.00;100988.53;5009098;28;20030;-62
2024/01/24 09:28:08;;;;;;;0.50;0.50;;;;;;;14.33;100.00;100998.28;5008985;28;20010;-63
2024/01/24 09:30:33;;;;;;;0.60;0.60;;;;;;;14.31;100.00;101001.00;5008557;28;20026;-63
2024/01/24 09:32:59;;;;;;;0.57;0.57;;;;;;;14.34;100.00;100994.66;5009009;28;20030;-67
2024/01/24 09:35:24;;;;;;;0.50;0.50;;;;;;;14.47;100.00;100998.69;5009064;28;20757;-68
2024/01/24 09:37:50;;;;;;;0.50;0.50;;;;;;;14.51;100.00;101009.25;5009470;28;20136;-67
2024/01/24 09:40:16;;;;;;;0.50;0.50;;;;;;;14.60;100.00;101001.81;5009189;28;20105;-67
2024/01/24 09:42:43;;;;;;;0.60;0.60;;;;;;;14.63;100.00;100996.41;5010205;28;20091;-67
2024/01/24 09:45:09;;;;;;;0.60;0.60;;;;;;;14.62;100.00;100999.97;5009593;28;20033;-67
2024/01/24 09:47:37;;;;;;;0.50;0.50;;;;;;;14.65;100.00;100995.41;5010375;28;20644;-68
2024/01/24 09:50:04;;;;;;;0.50;0.50;;;;;;;14.67;100.00;101014.09;5010603;28;20053;-69
2024/01/24 09:52:32;;;;;;;0.50;0.50;;;;;;;14.47;100.00;100969.25;5007127;28;20026;-68
2024/01/24 09:55:00;;;;;;;0.50;0.50;;;;;;;14.55;100.00;100983.25;4995680;28;20026;-68
2024/01/24 09:57:27;;;;;;;0.50;0.50;;;;;;;14.65;100.00;101030.22;5010521;28;20125;-68
2024/01/24 09:59:53;;;;;;;0.50;0.50;;;;;;;14.60;100.00;101032.16;5009585;28;20542;-67
2024/01/24 10:02:19;;;;;;;0.50;0.50;;;;;;;14.54;100.00;101019.00;5009861;28;20038;-68
2024/01/24 10:04:44;;;;;;;0.50;0.50;;;;;;;14.52;100.00;101026.19;5007914;28;20105;-67
2024/01/24 10:07:10;;;;;;;0.60;0.60;;;;;;;14.55;100.00;101030.59;4992068;28;20041;-69
2024/01/24 10:09:37;;;;;;;0.50;0.50;;;;;;;14.54;100.00;101027.03;5009317;28;20543;-68
2024/01/24 10:12:04;;;;;;;0.50;0.50;;;;;;;14.54;100.00;101048.44;5009441;28;20041;-68
2024/01/24 10:14:29;;;;;;;0.50;0.50;;;;;;;14.54;100.00;101048.44;5008385;28;20061;-68
2024/01/24 10:16:56;;;;;;;0.50;0.50;;;;;;;14.54;100.00;101040.41;5006354;28;20597;-67
2024/01/24 10:19:24;;;;;;;0.50;0.50;;;;;;;14.44;100.00;101028.25;5008587;28;20558;-68
2024/01/24 10:21:49;;;;;;;0.50;0.50;;;;;;;14.45;100.00;101036.22;5009604;28;20033;-67
2024/01/24 10:24:15;;;;;;;0.60;0.60;;;;;;;14.26;100.00;101008.31;5007191;28;20026;-67
2024/01/24 10:26:40;;;;;;;0.50;0.50;;;;;;;14.33;100.00;101036.59;5008691;28;20034;-68
2024/01/24 10:29:09;;;;;;;0.50;0.50;;;;;;;14.31;100.00;101038.47;5009439;28;20109;-68
2024/01/24 10:31:35;;;;;;;0.50;0.50;;;;;;;14.25;100.00;101048.47;5010532;28;20033;-69
2024/01/24 10:34:03;;;;;;;0.50;0.50;;;;;;;14.27;100.00;101062.69;5009705;28;20029;-68
2024/01/24 10:36:28;;;;;;;0.50;0.50;;;;;;;14.27;100.00;101052.88;5009188;28;20037;-69
2024/01/24 10:38:59;;;;;;;0.60;0.60;;;;;;;14.29;100.00;101047.47;5009463;28;20029;-67
2024/01/24 10:41:29;;;;;;;0.50;0.50;;;;;;;14.27;100.00;101057.34;5009853;28;20048;-67
2024/01/24 10:43:57;;;;;;;0.50;0.50;;;;;;;14.12;100.00;101039.03;5008828;28;20105;-67
2024/01/24 10:46:23;;;;;;;0.50;0.50;;;;;;;14.32;100.00;101060.75;5009808;28;20033;-66
2024/01/24 10:48:53;;;;;;;0.50;0.50;;;;;;;14.38;100.00;101061.44;4992202;28;20026;-68
2024/01/24 10:51:19;;;;;;;0.50;0.50;;;;;;;14.49;100.00;101091.44;5008386;28;20042;-68
2024/01/24 10:53:45;;;;;;;0.40;0.40;;;;;;;14.33;100.00;101051.81;5009391;28;20029;-68
2024/01/24 10:56:13;;;;;;;0.50;0.50;;;;;;;14.52;100.00;101085.97;5008381;28;20164;-67
2024/01/24 10:58:40;;;;;;;0.60;0.60;;;;;;;14.51;100.00;101102.09;5009393;28;20049;-67
2024/01/24 11:01:06;;;;;;;0.50;0.50;;;;;;;14.41;100.00;101073.84;5009417;28;20474;-68
2024/01/24 11:03:32;;;;;;;0.50;0.50;;;;;;;14.56;100.00;101094.78;5009461;28;20125;-67
2024/01/24 11:06:01;;;;;;;0.50;0.50;;;;;;;14.56;100.00;101097.47;4991976;28;20192;-67
2024/01/24 11:08:51;;;;;;;0.50;0.50;;;;;;;14.57;100.00;101109.91;5007759;28;20108;-68
2024/01/24 11:11:21;;;;;;;0.50;0.50;;;;;;;14.44;100.00;101103.19;5007840;28;20633;-67
2024/01/24 11:13:46;;;;;;;0.60;0.60;;;;;;;14.37;100.00;101106.97;5006493;28;20782;-67
2024/01/24 11:16:41;;;;;;;0.50;0.50;;;;;;;14.20;100.00;101109.28;5007570;28;20034;-67